CheckWX is a tool to help pilots better visualize weather data.  It is not intended as a substitute for an official pre-flight weather briefing.

16:21:11 UTC

KLRF TAF
Little Rock AFB Airport
Jacksonville, Arkansas, USA
TAF KLRF 191501Z 1915/2021 31009KT 9999 SKC QNH2984INS BECMG 1919/1920 VRB06KT 9999 SKC QNH2991INS BECMG 2007/2008 16009KT 9999 SCT200 QNH3005INS TX18/1921Z TN04/2011Z

Nov-19@
15:00 UTC

Nov-19 @ 15:00 UTC

Nov-19@
19:00 UTC

Nov-19 @ 19:00 UTC

TAF KLRF 191501Z 1915/2021 31009KT 9999 SKC QNH2984INS
Wind
  • 310° at 9 KTS
Cloud Levels
  • Clear skies

Nov-19@
19:00 UTC

Nov-19 @ 19:00 UTC

Nov-20@
07:00 UTC

Nov-20 @ 07:00 UTC

BECMG 1919/1920 VRB06KT 9999 SKC QNH2991INS

Becoming

Becoming Conditions expected by Tue, Nov 19, 2019 @ 20:00 UTC

Wind
  • Variable at 6 KTS
Cloud Levels
  • Clear skies

Nov-20@
07:00 UTC

Nov-20 @ 07:00 UTC

Nov-20@
21:00 UTC

Nov-20 @ 21:00 UTC

BECMG 2007/2008 16009KT 9999 SCT200 QNH3005INS TX18/1921Z TN04/2011Z

Becoming

Becoming Conditions expected by Wed, Nov 20, 2019 @ 08:00 UTC

Wind
  • 160° at 9 KTS
Cloud Levels
  • Scattered at 20,000' AGL